createdAt,value
2022-10-05T00:01:21.805Z,101813.69
2022-10-05T00:03:50.202Z,101863.94
2022-10-05T00:06:18.445Z,101864.66
2022-10-05T00:08:46.941Z,101867.22
2022-10-05T00:11:15.641Z,101862.25
2022-10-05T00:13:45.360Z,101863.31
2022-10-05T00:16:18.346Z,101861.63
2022-10-05T00:18:49.912Z,101862.03
2022-10-05T00:21:23.608Z,101861.88
2022-10-05T00:23:52.826Z,101867.25
2022-10-05T00:26:23.263Z,101832.56
2022-10-05T00:28:54.498Z,101866.81
2022-10-05T00:31:26.326Z,101862.28
2022-10-05T00:33:55.196Z,101868.22
2022-10-05T00:36:23.712Z,101869.59
2022-10-05T00:38:52.055Z,101860.78
2022-10-05T00:41:26.332Z,101872.81
2022-10-05T00:44:17.787Z,101870.69
2022-10-05T00:46:56.901Z,101865.00
2022-10-05T00:49:42.395Z,101867.94
2022-10-05T00:52:22.944Z,101872.16
2022-10-05T00:55:00.619Z,101864.09
2022-10-05T00:57:40.724Z,101864.94
2022-10-05T01:00:19.387Z,101864.78
2022-10-05T01:02:57.540Z,101839.78
2022-10-05T01:05:41.266Z,101871.16
2022-10-05T01:08:20.034Z,101869.47
2022-10-05T01:10:57.315Z,101861.94
2022-10-05T01:13:32.787Z,101866.88
2022-10-05T01:16:11.016Z,101863.19
2022-10-05T01:18:46.651Z,101855.00
2022-10-05T01:21:21.100Z,101868.28
2022-10-05T01:24:17.162Z,101869.13
2022-10-05T01:27:20.169Z,101866.88
2022-10-05T01:29:55.870Z,101871.97
2022-10-05T01:32:30.407Z,101868.28
2022-10-05T01:35:12.379Z,101859.66
2022-10-05T01:37:50.456Z,101873.94
2022-10-05T01:40:29.527Z,101871.13
2022-10-05T01:43:07.161Z,101874.38
2022-10-05T01:45:50.851Z,101863.72
2022-10-05T01:48:28.716Z,101875.88
2022-10-05T01:51:07.470Z,101872.03
2022-10-05T01:53:46.947Z,101870.19
2022-10-05T01:56:20.985Z,101869.19
2022-10-05T01:58:59.987Z,101873.28
2022-10-05T02:01:37.098Z,101883.22
2022-10-05T02:04:10.597Z,101880.38
2022-10-05T02:06:42.771Z,101883.22
2022-10-05T02:09:16.738Z,101881.38
2022-10-05T02:11:48.783Z,101860.41
2022-10-05T02:14:20.622Z,101880.78
2022-10-05T02:16:55.858Z,101878.78
2022-10-05T02:19:30.490Z,101882.16
2022-10-05T02:22:11.708Z,101878.31
2022-10-05T02:24:46.581Z,101879.16
2022-10-05T02:27:20.979Z,101879.00
2022-10-05T02:29:52.172Z,101877.16
2022-10-05T02:32:26.333Z,101865.84
2022-10-05T02:35:00.334Z,101862.59
2022-10-05T02:37:35.636Z,101874.13
2022-10-05T02:40:17.534Z,101861.84
2022-10-05T02:42:55.996Z,101847.72
2022-10-05T02:45:31.451Z,101871.06
2022-10-05T02:48:10.051Z,101869.22
2022-10-05T02:50:50.757Z,101862.50
2022-10-05T02:53:26.544Z,101838.94
2022-10-05T02:56:08.840Z,101861.50
2022-10-05T02:58:45.606Z,101866.03
2022-10-05T03:01:25.568Z,101857.28
2022-10-05T03:04:06.399Z,101857.94
2022-10-05T03:06:42.064Z,101864.03
2022-10-05T03:09:11.281Z,101862.03
2022-10-05T03:11:48.782Z,101861.75
2022-10-05T03:14:27.330Z,101872.22
2022-10-05T03:17:06.887Z,101872.53
2022-10-05T03:20:02.388Z,101867.13
2022-10-05T03:22:44.330Z,101878.78
2022-10-05T03:25:33.530Z,101883.00
2022-10-05T03:28:10.136Z,101882.00
2022-10-05T03:30:45.513Z,101885.25
2022-10-05T03:33:20.387Z,101884.94
2022-10-05T03:35:59.169Z,101890.03
2022-10-05T03:38:36.166Z,101886.78
2022-10-05T03:41:11.325Z,101888.81
2022-10-05T03:44:03.997Z,101887.41
2022-10-05T03:46:50.628Z,101893.09
2022-10-05T03:49:28.499Z,101891.41
2022-10-05T03:52:15.166Z,101880.63
2022-10-05T03:54:47.655Z,101889.72
2022-10-05T03:57:19.761Z,101893.41
2022-10-05T03:59:57.953Z,101897.81
2022-10-05T04:02:29.735Z,101868.97
2022-10-05T04:05:04.530Z,101892.72
2022-10-05T04:07:42.850Z,101893.88
2022-10-05T04:10:17.686Z,101869.72
2022-10-05T04:12:52.652Z,101890.81
2022-10-05T04:15:28.426Z,101895.34
2022-10-05T04:18:02.010Z,101896.03
2022-10-05T04:20:35.729Z,101904.13
2022-10-05T04:23:14.328Z,101903.75
2022-10-05T04:25:47.481Z,101898.94
2022-10-05T04:28:29.656Z,101896.00
2022-10-05T04:31:05.654Z,101908.72
2022-10-05T04:33:34.506Z,101910.59
2022-10-05T04:36:14.662Z,101895.44
2022-10-05T04:38:55.302Z,101903.50
2022-10-05T04:41:47.644Z,101902.50
2022-10-05T04:44:30.147Z,101901.78
2022-10-05T04:47:18.288Z,101872.66
2022-10-05T04:50:07.929Z,101900.78
2022-10-05T04:52:45.234Z,101909.03
2022-10-05T04:55:26.585Z,101906.03
2022-10-05T04:58:02.424Z,101895.94
2022-10-05T05:00:41.715Z,101889.16
2022-10-05T05:03:29.307Z,101907.72
2022-10-05T05:06:22.375Z,101902.78
2022-10-05T05:09:14.307Z,101910.88
2022-10-05T05:11:54.823Z,101881.91
2022-10-05T05:14:41.285Z,101913.44
2022-10-05T05:17:23.726Z,101912.03
2022-10-05T05:20:00.450Z,101900.69
2022-10-05T05:22:37.110Z,101906.78
2022-10-05T05:25:23.170Z,101911.31
2022-10-05T05:27:59.004Z,101914.31
2022-10-05T05:30:41.518Z,101906.38
2022-10-05T05:33:20.480Z,101906.53
2022-10-05T05:36:22.994Z,101908.84
2022-10-05T05:39:06.833Z,101903.88
2022-10-05T05:41:40.188Z,101910.97
2022-10-05T05:44:23.130Z,101917.78
2022-10-05T05:47:04.047Z,101919.34
2022-10-05T05:49:52.432Z,101921.19
2022-10-05T05:52:25.558Z,101925.72
2022-10-05T05:55:00.443Z,101928.72
2022-10-05T05:57:35.692Z,101936.38
2022-10-05T06:00:09.247Z,101934.97
2022-10-05T06:02:55.769Z,101944.34
2022-10-05T06:05:30.218Z,101951.44
2022-10-05T06:08:04.561Z,101957.69
2022-10-05T06:10:41.505Z,101950.59
2022-10-05T06:13:20.222Z,101948.03
2022-10-05T06:15:55.331Z,101948.03
2022-10-05T06:18:25.000Z,101955.13
2022-10-05T06:21:02.450Z,101949.88
2022-10-05T06:23:39.724Z,101964.91
2022-10-05T06:26:25.697Z,101966.91
2022-10-05T06:28:59.399Z,101964.50
2022-10-05T06:31:43.008Z,101964.78
2022-10-05T06:34:26.403Z,101981.97
2022-10-05T06:37:01.277Z,101982.13
2022-10-05T06:40:02.002Z,101980.97
2022-10-05T06:42:49.202Z,101980.25
2022-10-05T06:45:55.703Z,101984.97
2022-10-05T06:49:12.883Z,101984.97
2022-10-05T06:52:16.847Z,101958.63
2022-10-05T06:55:00.961Z,101991.75
2022-10-05T06:58:02.964Z,101998.84
2022-10-05T07:00:40.426Z,102005.63
2022-10-05T07:03:23.553Z,101999.66
2022-10-05T07:06:04.532Z,102008.16
2022-10-05T07:08:45.672Z,102007.59
2022-10-05T07:11:26.060Z,102002.59
2022-10-05T07:14:08.818Z,102002.44
2022-10-05T07:16:49.135Z,102008.69
2022-10-05T07:19:32.994Z,102012.53
2022-10-05T07:22:20.797Z,102016.78
2022-10-05T07:25:00.594Z,102015.94
2022-10-05T07:27:33.507Z,102012.94
2022-10-05T07:30:05.864Z,102005.28
2022-10-05T07:32:46.158Z,102019.44
2022-10-05T07:35:39.433Z,102029.22
2022-10-05T07:38:16.714Z,101998.53
2022-10-05T07:40:50.834Z,102038.59
2022-10-05T07:43:45.211Z,102031.91
2022-10-05T07:46:25.500Z,102036.97
2022-10-05T07:49:03.296Z,102031.69
2022-10-05T07:51:38.039Z,102033.34
2022-10-05T07:54:20.504Z,102035.09
2022-10-05T07:56:56.043Z,102034.34
2022-10-05T07:59:32.365Z,102041.09
2022-10-05T08:02:08.789Z,102048.13
2022-10-05T08:04:46.336Z,101896.16
2022-10-05T08:07:18.355Z,102055.59
2022-10-05T08:09:53.321Z,102049.56
2022-10-05T08:12:27.255Z,102047.53
2022-10-05T08:14:59.040Z,102062.59
2022-10-05T08:17:39.195Z,102051.47
2022-10-05T08:20:33.907Z,102057.41
2022-10-05T08:23:07.816Z,102057.13
2022-10-05T08:25:46.995Z,102060.19
2022-10-05T08:28:22.628Z,102029.72
2022-10-05T08:30:58.045Z,102063.19
2022-10-05T08:33:31.764Z,102061.41
2022-10-05T08:36:08.254Z,102061.81
2022-10-05T08:38:36.554Z,102067.53
2022-10-05T08:41:50.400Z,102073.38
2022-10-05T08:44:55.891Z,102064.84
2022-10-05T08:47:42.086Z,102079.97
2022-10-05T08:50:24.411Z,102079.56
2022-10-05T08:53:21.724Z,102077.06
2022-10-05T08:56:20.080Z,102084.50
2022-10-05T08:59:27.039Z,102084.88
2022-10-05T09:02:11.339Z,102088.63
2022-10-05T09:04:54.520Z,102080.88
2022-10-05T09:07:46.445Z,102084.31
2022-10-05T09:10:51.641Z,102092.63
2022-10-05T09:14:05.557Z,102095.03
2022-10-05T09:16:45.950Z,102085.72
2022-10-05T09:19:55.748Z,102081.50
2022-10-05T09:22:41.547Z,102063.91
2022-10-05T09:25:24.678Z,102090.84
2022-10-05T09:28:13.948Z,102092.19
2022-10-05T09:30:57.877Z,102091.84
2022-10-05T09:33:53.980Z,102094.22
2022-10-05T09:36:58.430Z,102092.19
2022-10-05T09:39:51.010Z,102093.38
2022-10-05T09:42:46.448Z,102091.69
2022-10-05T09:45:36.445Z,102094.22
2022-10-05T09:48:41.611Z,102094.56
2022-10-05T09:51:37.935Z,102090.84
2022-10-05T09:54:46.174Z,102088.63
2022-10-05T09:57:44.159Z,102096.25
2022-10-05T10:00:24.227Z,102102.38
2022-10-05T10:03:15.021Z,102097.78
2022-10-05T10:06:02.694Z,102096.22
2022-10-05T10:08:43.446Z,102095.34
2022-10-05T10:11:38.468Z,102102.41
2022-10-05T10:14:41.027Z,102097.47
2022-10-05T10:17:34.971Z,102099.53
2022-10-05T10:20:15.895Z,102094.94
2022-10-05T10:23:06.633Z,102099.66
2022-10-05T10:25:55.597Z,102092.38
2022-10-05T10:28:44.445Z,102101.28
2022-10-05T10:31:34.659Z,102090.88
2022-10-05T10:34:28.850Z,102090.28
2022-10-05T10:37:23.634Z,102088.41
2022-10-05T10:40:13.872Z,102081.59
2022-10-05T10:42:56.921Z,102086.69
2022-10-05T10:45:41.651Z,102077.50
2022-10-05T10:48:13.886Z,102077.50
2022-10-05T10:51:03.123Z,102086.81
2022-10-05T10:53:51.318Z,102079.31
2022-10-05T10:56:30.705Z,102075.50
2022-10-05T10:59:35.454Z,102071.69
2022-10-05T11:02:27.187Z,102074.59
2022-10-05T11:05:20.959Z,102074.97
2022-10-05T11:08:03.850Z,102074.31
2022-10-05T11:10:51.350Z,102067.28
2022-10-05T11:13:53.385Z,102056.69
2022-10-05T11:16:50.171Z,102053.59
2022-10-05T11:20:03.214Z,102063.53
2022-10-05T11:22:57.597Z,102060.88
2022-10-05T11:25:56.040Z,102059.97
2022-10-05T11:29:11.739Z,102046.94
2022-10-05T11:32:13.970Z,102042.59
2022-10-05T11:35:20.242Z,102049.69
2022-10-05T11:38:17.074Z,102045.91
2022-10-05T11:41:13.206Z,102043.84
2022-10-05T11:44:15.531Z,102036.81
2022-10-05T11:46:53.699Z,102031.19
2022-10-05T11:49:37.536Z,102029.41
2022-10-05T11:52:14.213Z,102030.81
2022-10-05T11:55:10.282Z,102033.34
2022-10-05T11:57:47.539Z,102026.94
2022-10-05T12:00:19.440Z,102029.69
2022-10-05T12:03:10.598Z,102023.53
2022-10-05T12:05:53.330Z,102020.63
2022-10-05T12:08:33.870Z,102024.56
2022-10-05T12:11:10.112Z,102023.25
2022-10-05T12:13:47.281Z,102025.16
2022-10-05T12:16:23.475Z,102015.50
2022-10-05T12:18:58.823Z,102022.44
2022-10-05T12:21:34.540Z,101949.97
2022-10-05T12:24:14.377Z,102017.56
2022-10-05T12:26:48.883Z,102016.59
2022-10-05T12:29:26.000Z,102015.28
2022-10-05T12:32:00.619Z,102002.72
2022-10-05T12:34:48.959Z,101997.25
2022-10-05T12:37:38.558Z,101996.53
2022-10-05T12:40:23.440Z,101991.66
2022-10-05T12:43:01.367Z,101988.94
2022-10-05T12:45:39.548Z,101988.28
2022-10-05T12:48:26.495Z,101979.78
2022-10-05T12:51:02.538Z,101957.66
2022-10-05T12:53:48.663Z,101976.22
2022-10-05T12:56:29.900Z,101965.66
2022-10-05T12:59:08.884Z,101970.50
2022-10-05T13:01:42.763Z,101978.28
2022-10-05T13:04:26.888Z,101974.44
2022-10-05T13:07:11.697Z,101979.34
2022-10-05T13:09:43.764Z,101975.03
2022-10-05T13:12:21.573Z,101975.50
2022-10-05T13:15:00.596Z,101934.59
2022-10-05T13:17:40.848Z,101945.94
2022-10-05T13:20:16.693Z,101971.75
2022-10-05T13:22:48.735Z,101980.22
2022-10-05T13:25:27.240Z,101958.31
2022-10-05T13:28:16.035Z,101959.41
2022-10-05T13:30:53.663Z,101963.81
2022-10-05T13:33:32.921Z,101896.38
2022-10-05T13:36:08.674Z,101948.91
2022-10-05T13:38:49.056Z,101955.28
2022-10-05T13:41:26.934Z,101950.94
2022-10-05T13:44:07.377Z,101959.38
2022-10-05T13:46:43.388Z,101955.63
2022-10-05T13:49:22.635Z,101952.91
2022-10-05T13:51:59.998Z,101958.53
2022-10-05T13:54:38.445Z,101959.56
2022-10-05T13:57:18.547Z,101961.47
2022-10-05T13:59:54.978Z,101961.66
2022-10-05T14:02:27.843Z,101953.09
2022-10-05T14:05:01.694Z,101955.47
2022-10-05T14:07:35.020Z,101951.03
2022-10-05T14:10:08.426Z,101954.09
2022-10-05T14:12:41.487Z,101940.59
2022-10-05T14:15:23.788Z,101951.31
2022-10-05T14:17:52.826Z,101949.16
2022-10-05T14:20:25.371Z,101947.03
2022-10-05T14:22:58.534Z,101945.47
2022-10-05T14:25:27.151Z,101945.19
2022-10-05T14:28:02.198Z,101937.78
2022-10-05T14:30:33.741Z,101948.03
2022-10-05T14:33:15.522Z,101947.19
2022-10-05T14:35:50.243Z,101945.69
2022-10-05T14:38:21.872Z,101929.88
2022-10-05T14:41:17.533Z,101941.47
2022-10-05T14:43:55.893Z,101941.88
2022-10-05T14:46:29.076Z,101940.19
2022-10-05T14:49:17.088Z,101934.72
2022-10-05T14:51:45.526Z,101934.94
2022-10-05T14:54:36.923Z,101931.81
2022-10-05T14:57:11.530Z,101936.41
2022-10-05T15:00:09.291Z,101938.53
2022-10-05T15:03:11.017Z,101933.66
2022-10-05T15:05:43.538Z,101933.84
2022-10-05T15:08:33.858Z,101932.41
2022-10-05T15:11:07.637Z,101944.53
2022-10-05T15:13:41.594Z,101947.47
2022-10-05T15:16:18.843Z,101941.34
2022-10-05T15:18:58.010Z,101941.16
2022-10-05T15:21:40.645Z,101949.53
2022-10-05T15:24:16.698Z,101944.66
2022-10-05T15:26:51.641Z,101944.19
2022-10-05T15:29:38.278Z,101941.00
2022-10-05T15:32:18.262Z,101946.00
2022-10-05T15:35:04.063Z,101939.25
2022-10-05T15:37:42.111Z,101943.03
2022-10-05T15:40:24.490Z,101949.50
2022-10-05T15:42:56.455Z,101955.13
2022-10-05T15:45:32.383Z,101949.88
2022-10-05T15:48:04.177Z,101951.47
2022-10-05T15:50:45.876Z,101944.53
2022-10-05T15:53:22.518Z,101932.34
2022-10-05T15:55:54.817Z,101953.59
2022-10-05T15:58:46.276Z,101955.00
2022-10-05T16:01:19.998Z,101962.28
2022-10-05T16:03:52.265Z,101957.59
2022-10-05T16:06:52.330Z,101924.38
2022-10-05T16:09:36.881Z,101962.09
2022-10-05T16:12:19.153Z,101967.41
2022-10-05T16:14:57.483Z,101962.75
2022-10-05T16:17:48.189Z,101968.00
2022-10-05T16:20:32.829Z,101953.72
2022-10-05T16:23:10.761Z,101973.53
2022-10-05T16:25:51.752Z,101973.06
2022-10-05T16:28:34.621Z,101974.44
2022-10-05T16:31:13.443Z,101969.94
2022-10-05T16:33:54.612Z,101982.06
2022-10-05T16:36:37.316Z,101985.31
2022-10-05T16:39:15.056Z,101986.53
2022-10-05T16:41:54.751Z,101982.66
2022-10-05T16:44:35.226Z,101976.72
2022-10-05T16:47:09.770Z,101961.59
2022-10-05T16:49:47.921Z,101983.66
2022-10-05T16:52:19.439Z,101982.41
2022-10-05T16:54:53.374Z,101995.38
2022-10-05T16:57:24.957Z,101996.56
2022-10-05T17:00:18.237Z,101992.34
2022-10-05T17:03:05.914Z,101995.97
2022-10-05T17:05:51.401Z,101997.53
2022-10-05T17:08:36.785Z,102000.59
2022-10-05T17:11:17.673Z,102004.53
2022-10-05T17:14:04.931Z,102008.00
2022-10-05T17:16:44.518Z,102008.03
2022-10-05T17:19:33.578Z,101973.06
2022-10-05T17:22:10.479Z,102017.44
2022-10-05T17:24:53.312Z,102016.94
2022-10-05T17:27:32.615Z,102013.81
2022-10-05T17:30:23.859Z,102015.00
2022-10-05T17:33:04.753Z,102014.91
2022-10-05T17:35:52.845Z,102021.19
2022-10-05T17:38:24.307Z,102029.38
2022-10-05T17:41:15.648Z,102024.34
2022-10-05T17:44:19.507Z,102022.34
2022-10-05T17:46:50.232Z,102015.41
2022-10-05T17:50:08.235Z,102020.34
2022-10-05T17:52:53.940Z,102029.50
2022-10-05T17:55:38.448Z,102034.94
2022-10-05T17:59:03.256Z,102037.63
2022-10-05T18:01:38.596Z,102035.97
2022-10-05T18:04:42.397Z,102032.22
2022-10-05T18:07:20.999Z,102038.31
2022-10-05T18:10:04.546Z,102038.28
2022-10-05T18:12:51.313Z,102039.91
2022-10-05T18:15:49.279Z,102046.34
2022-10-05T18:18:55.987Z,102000.22
2022-10-05T18:21:40.125Z,102062.22
2022-10-05T18:24:39.035Z,102069.84
2022-10-05T18:27:30.802Z,102077.75
2022-10-05T18:30:06.745Z,102079.59
2022-10-05T18:32:55.744Z,102086.13
2022-10-05T18:35:34.264Z,102086.72
2022-10-05T18:38:13.276Z,102086.00
2022-10-05T18:40:53.610Z,102046.59
2022-10-05T18:43:31.070Z,102087.81
2022-10-05T18:46:12.099Z,102099.78
2022-10-05T18:48:54.304Z,102103.19
2022-10-05T18:51:31.227Z,102101.50
2022-10-05T18:54:13.650Z,102112.16
2022-10-05T18:56:47.358Z,102114.16
2022-10-05T18:59:32.229Z,102120.56
2022-10-05T19:02:19.055Z,102088.47
2022-10-05T19:05:03.088Z,102120.88
2022-10-05T19:07:44.137Z,102121.03
2022-10-05T19:10:24.990Z,102129.50
2022-10-05T19:13:11.957Z,102126.69
2022-10-05T19:15:46.630Z,102132.19
2022-10-05T19:18:26.793Z,102131.81
2022-10-05T19:21:03.441Z,102138.22
2022-10-05T19:23:53.199Z,102141.56
2022-10-05T19:26:39.202Z,102142.19
2022-10-05T19:29:22.888Z,102144.50
2022-10-05T19:31:57.547Z,102154.91
2022-10-05T19:34:51.062Z,102153.50
2022-10-05T19:37:25.824Z,102152.91
2022-10-05T19:40:02.544Z,102154.06
2022-10-05T19:42:57.554Z,102152.81
2022-10-05T19:45:28.001Z,102100.63
2022-10-05T19:48:12.514Z,102155.41
2022-10-05T19:50:41.615Z,102164.38
2022-10-05T19:53:15.267Z,102163.16
2022-10-05T19:55:47.264Z,102161.34
2022-10-05T19:58:21.561Z,102163.91
2022-10-05T20:00:56.504Z,102179.69
2022-10-05T20:03:29.524Z,102179.00
2022-10-05T20:05:59.523Z,102185.41
2022-10-05T20:08:31.977Z,102190.44
2022-10-05T20:11:13.803Z,102195.56
2022-10-05T20:13:44.445Z,102168.09
2022-10-05T20:16:47.707Z,102188.75
2022-10-05T20:19:56.388Z,102161.00
2022-10-05T20:22:30.402Z,102192.75
2022-10-05T20:25:01.259Z,102208.38
2022-10-05T20:27:44.248Z,102212.34
2022-10-05T20:30:14.477Z,102209.41
2022-10-05T20:32:43.705Z,102212.56
2022-10-05T20:35:12.756Z,102211.56
2022-10-05T20:37:41.457Z,102211.13
2022-10-05T20:40:11.519Z,102216.53
2022-10-05T20:42:41.202Z,102226.31
2022-10-05T20:45:10.935Z,102225.34
2022-10-05T20:47:39.223Z,102223.22
2022-10-05T20:50:09.168Z,102225.63
2022-10-05T20:52:38.413Z,102219.84
2022-10-05T20:55:08.826Z,102212.00
2022-10-05T20:57:41.591Z,102212.41
2022-10-05T21:00:13.314Z,102222.13
2022-10-05T21:02:41.850Z,102214.16
2022-10-05T21:05:10.717Z,102234.47
2022-10-05T21:07:41.002Z,102230.53
2022-10-05T21:10:10.028Z,102227.50
2022-10-05T21:12:39.293Z,102226.09
2022-10-05T21:15:08.267Z,102224.66
2022-10-05T21:17:39.183Z,102225.94
2022-10-05T21:20:11.290Z,102229.22
2022-10-05T21:22:39.499Z,102234.16
2022-10-05T21:25:09.091Z,102230.03
2022-10-05T21:27:37.493Z,102231.19
2022-10-05T21:30:06.371Z,102234.28
2022-10-05T21:32:34.759Z,102217.81
2022-10-05T21:35:04.625Z,102240.66
2022-10-05T21:37:32.965Z,102242.50
2022-10-05T21:40:01.216Z,102239.94
2022-10-05T21:42:29.625Z,102245.19
2022-10-05T21:44:58.899Z,102249.88
2022-10-05T21:47:27.328Z,102245.63
2022-10-05T21:49:55.960Z,102248.72
2022-10-05T21:52:25.692Z,102243.59
2022-10-05T21:54:53.987Z,102247.28
2022-10-05T21:57:22.942Z,102247.56
2022-10-05T21:59:51.359Z,102247.09
2022-10-05T22:02:19.722Z,102250.94
2022-10-05T22:04:48.008Z,102259.00
2022-10-05T22:07:19.252Z,102248.38
2022-10-05T22:09:50.367Z,102238.44
2022-10-05T22:12:20.701Z,102242.44
2022-10-05T22:14:49.902Z,102244.81
2022-10-05T22:17:23.779Z,102243.78
2022-10-05T22:19:52.535Z,102240.78
2022-10-05T22:22:20.801Z,102248.53
2022-10-05T22:24:50.541Z,102243.53
2022-10-05T22:27:18.870Z,102236.84
2022-10-05T22:29:47.634Z,102237.13
2022-10-05T22:32:15.939Z,102224.16
2022-10-05T22:34:44.266Z,102237.25
2022-10-05T22:37:14.360Z,102241.66
2022-10-05T22:39:43.486Z,102229.72
2022-10-05T22:42:13.176Z,102243.09
2022-10-05T22:44:42.535Z,102250.19
2022-10-05T22:47:10.876Z,102252.16
2022-10-05T22:49:39.195Z,102129.47
2022-10-05T22:52:07.474Z,102259.75
2022-10-05T22:54:37.376Z,102259.03
2022-10-05T22:57:05.894Z,102254.91
2022-10-05T22:59:35.624Z,102249.66
2022-10-05T23:02:04.002Z,102244.00
2022-10-05T23:04:32.530Z,102251.19
2022-10-05T23:07:00.807Z,102261.38
2022-10-05T23:09:29.095Z,102256.13
2022-10-05T23:11:58.183Z,102258.34
2022-10-05T23:14:26.597Z,102263.59
2022-10-05T23:16:56.349Z,102264.31
2022-10-05T23:19:24.706Z,102261.91
2022-10-05T23:21:52.927Z,102262.41
2022-10-05T23:24:21.285Z,102260.13
2022-10-05T23:26:50.115Z,102261.56
2022-10-05T23:29:18.490Z,102254.47
2022-10-05T23:31:47.299Z,102262.81
2022-10-05T23:34:17.095Z,102259.28
2022-10-05T23:36:45.412Z,102263.09
2022-10-05T23:39:14.611Z,102252.59
2022-10-05T23:41:44.349Z,102248.72
2022-10-05T23:44:12.806Z,102246.16
2022-10-05T23:46:41.127Z,102252.66
2022-10-05T23:49:09.435Z,102248.38
2022-10-05T23:51:39.166Z,102258.03
2022-10-05T23:54:07.459Z,102251.06
2022-10-05T23:56:35.748Z,102246.66
2022-10-05T23:59:04.103Z,102255.72
